Terminal Aerodrome Forecast
Issued by NWS

Home | Current Version | Previous Version | Text Only | Print | Product List | Glossary On
Versions: 1 2 3 4 5 6 7 8 9 10 11 12 13 14 15 16 17 18 19 20 21 22 23 24 25 26 27 28 29 30 31 32 33 34 35 36 37 38 39 40 41 42 43 44 45 46 47 48 49 50
000
FTUS42 KRAH 130520
TAFRWI
TAF
KRWI 130520Z 1306/1406 00000KT 6SM BR SKC
     FM130800 00000KT 3SM BR SKC
      TEMPO 1308/1312 00000KT 1/2SM FG VV002
     FM131200 20007KT P6SM SKC=

USA.gov is the U.S. government's official web portal to all federal, state and local government web resources and services.